Aviation Digital Data Service (ADDS)

Output produced by TAFs form (1738 UTC 21 April 2018)
found at http://aviationweather.gov/adds/tafs/
 
TAF RJCK 211711Z 2118/2300 36011KT 9999 FEW030 
     BECMG 2203/2205 20018KT 
     BECMG 2209/2212 20004KT 
     TEMPO 2212/2218 FEW005 BKN008